sensor_id;sensor_type;location;lat;lon;timestamp;pressure;altitude;pressure_sealevel;temperature;humidity
25560;BME280;13450;49.374;8.584;2022-09-24T00:00:57;100247.13;;;12.76;100.00
25560;BME280;13450;49.374;8.584;2022-09-24T00:03:24;100244.63;;;12.74;100.00
25560;BME280;13450;49.374;8.584;2022-09-24T00:05:50;100235.78;;;12.74;100.00
25560;BME280;13450;49.374;8.584;2022-09-24T00:08:19;100231.63;;;12.71;100.00
25560;BME280;13450;49.374;8.584;2022-09-24T00:10:46;100234.53;;;12.69;100.00
25560;BME280;13450;49.374;8.584;2022-09-24T00:13:15;100231.19;;;12.67;100.00
25560;BME280;13450;49.374;8.584;2022-09-24T00:15:46;100229.34;;;12.61;100.00
25560;BME280;13450;49.374;8.584;2022-09-24T00:18:13;100231.19;;;12.61;100.00
25560;BME280;13450;49.374;8.584;2022-09-24T00:20:39;100235.34;;;12.63;100.00
25560;BME280;13450;49.374;8.584;2022-09-24T00:23:07;100218.59;;;12.61;100.00
25560;BME280;13450;49.374;8.584;2022-09-24T00:25:33;100226.25;;;12.64;100.00
25560;BME280;13450;49.374;8.584;2022-09-24T00:28:22;100225.44;;;12.71;100.00
25560;BME280;13450;49.374;8.584;2022-09-24T00:30:47;100224.00;;;12.75;100.00
25560;BME280;13450;49.374;8.584;2022-09-24T00:33:17;100219.88;;;12.79;100.00
25560;BME280;13450;49.374;8.584;2022-09-24T00:35:43;100216.16;;;12.80;100.00
25560;BME280;13450;49.374;8.584;2022-09-24T00:38:11;100213.91;;;12.84;100.00
25560;BME280;13450;49.374;8.584;2022-09-24T00:40:37;100218.03;;;12.86;100.00
25560;BME280;13450;49.374;8.584;2022-09-24T00:43:26;100206.44;;;12.86;100.00
25560;BME280;13450;49.374;8.584;2022-09-24T00:45:56;100214.69;;;12.84;100.00
25560;BME280;13450;49.374;8.584;2022-09-24T00:48:26;100208.28;;;12.85;100.00
25560;BME280;13450;49.374;8.584;2022-09-24T00:50:52;100201.47;;;12.82;100.00
25560;BME280;13450;49.374;8.584;2022-09-24T00:53:21;100195.31;;;12.82;100.00
25560;BME280;13450;49.374;8.584;2022-09-24T00:55:51;100188.69;;;12.78;100.00
25560;BME280;13450;49.374;8.584;2022-09-24T00:58:19;100179.78;;;12.77;100.00
25560;BME280;13450;49.374;8.584;2022-09-24T01:00:45;100178.34;;;12.75;100.00
25560;BME280;13450;49.374;8.584;2022-09-24T01:03:13;100173.38;;;12.72;100.00
25560;BME280;13450;49.374;8.584;2022-09-24T01:05:40;100171.34;;;12.67;100.00
25560;BME280;13450;49.374;8.584;2022-09-24T01:08:12;100174.81;;;12.67;100.00
25560;BME280;13450;49.374;8.584;2022-09-24T01:10:50;100177.50;;;12.54;100.00
25560;BME280;13450;49.374;8.584;2022-09-24T01:16:13;100169.66;;;12.46;100.00
25560;BME280;13450;49.374;8.584;2022-09-24T01:18:45;100167.97;;;12.38;100.00
25560;BME280;13450;49.374;8.584;2022-09-24T01:21:26;100170.66;;;12.31;100.00
25560;BME280;13450;49.374;8.584;2022-09-24T01:27:18;100157.63;;;12.14;100.00
25560;BME280;13450;49.374;8.584;2022-09-24T01:37:43;100162.13;;;12.07;100.00
25560;BME280;13450;49.374;8.584;2022-09-24T01:40:10;100157.13;;;12.04;100.00
25560;BME280;13450;49.374;8.584;2022-09-24T01:42:39;100159.22;;;12.02;100.00
25560;BME280;13450;49.374;8.584;2022-09-24T01:45:07;100154.25;;;11.99;100.00
25560;BME280;13450;49.374;8.584;2022-09-24T01:47:37;100160.03;;;11.96;100.00
25560;BME280;13450;49.374;8.584;2022-09-24T01:50:06;100164.53;;;11.88;100.00
25560;BME280;13450;49.374;8.584;2022-09-24T01:53:23;100158.31;;;11.88;100.00
25560;BME280;13450;49.374;8.584;2022-09-24T01:55:58;100153.13;;;11.80;100.00
25560;BME280;13450;49.374;8.584;2022-09-24T01:58:29;100151.22;;;11.67;100.00
25560;BME280;13450;49.374;8.584;2022-09-24T02:01:05;100142.13;;;11.61;100.00
25560;BME280;13450;49.374;8.584;2022-09-24T02:03:35;100133.41;;;11.45;100.00
25560;BME280;13450;49.374;8.584;2022-09-24T02:06:17;100130.88;;;11.37;100.00
25560;BME280;13450;49.374;8.584;2022-09-24T02:08:46;100129.59;;;11.26;100.00
25560;BME280;13450;49.374;8.584;2022-09-24T02:16:13;100135.50;;;11.15;100.00
25560;BME280;13450;49.374;8.584;2022-09-24T02:18:45;100132.19;;;11.12;100.00
25560;BME280;13450;49.374;8.584;2022-09-24T02:21:14;100126.22;;;11.10;100.00
25560;BME280;13450;49.374;8.584;2022-09-24T02:23:47;100126.22;;;11.10;100.00
25560;BME280;13450;49.374;8.584;2022-09-24T02:26:15;100129.91;;;11.09;100.00
25560;BME280;13450;49.374;8.584;2022-09-24T02:28:43;100126.97;;;11.04;100.00
25560;BME280;13450;49.374;8.584;2022-09-24T02:31:13;100132.53;;;11.03;100.00
25560;BME280;13450;49.374;8.584;2022-09-24T02:33:41;100135.00;;;11.04;100.00
25560;BME280;13450;49.374;8.584;2022-09-24T02:36:28;100129.63;;;10.97;100.00
25560;BME280;13450;49.374;8.584;2022-09-24T02:38:53;100133.13;;;10.98;100.00
25560;BME280;13450;49.374;8.584;2022-09-24T02:41:20;100128.53;;;10.92;100.00
25560;BME280;13450;49.374;8.584;2022-09-24T02:43:49;100135.16;;;10.96;100.00
25560;BME280;13450;49.374;8.584;2022-09-24T02:46:14;100134.31;;;10.89;100.00
25560;BME280;13450;49.374;8.584;2022-09-24T02:48:40;100126.84;;;10.84;100.00
25560;BME280;13450;49.374;8.584;2022-09-24T02:51:08;100121.44;;;10.77;100.00
25560;BME280;13450;49.374;8.584;2022-09-24T02:53:33;100134.56;;;10.72;100.00
25560;BME280;13450;49.374;8.584;2022-09-24T02:56:00;100127.75;;;10.69;100.00
25560;BME280;13450;49.374;8.584;2022-09-24T02:58:26;100138.03;;;10.66;100.00
25560;BME280;13450;49.374;8.584;2022-09-24T03:00:52;100133.84;;;10.56;100.00
25560;BME280;13450;49.374;8.584;2022-09-24T03:03:19;100131.09;;;10.50;100.00
25560;BME280;13450;49.374;8.584;2022-09-24T03:05:45;100134.91;;;10.40;100.00
25560;BME280;13450;49.374;8.584;2022-09-24T03:08:12;100131.81;;;10.43;100.00
25560;BME280;13450;49.374;8.584;2022-09-24T03:10:37;100135.00;;;10.47;100.00
25560;BME280;13450;49.374;8.584;2022-09-24T03:13:03;100131.38;;;10.40;100.00
25560;BME280;13450;49.374;8.584;2022-09-24T03:15:31;100132.69;;;10.44;100.00
25560;BME280;13450;49.374;8.584;2022-09-24T03:17:58;100130.47;;;10.48;100.00
25560;BME280;13450;49.374;8.584;2022-09-24T03:20:24;100135.63;;;10.49;100.00
25560;BME280;13450;49.374;8.584;2022-09-24T03:22:52;100129.44;;;10.49;100.00
25560;BME280;13450;49.374;8.584;2022-09-24T03:25:18;100125.66;;;10.43;100.00
25560;BME280;13450;49.374;8.584;2022-09-24T03:27:44;100129.44;;;10.49;100.00
25560;BME280;13450;49.374;8.584;2022-09-24T03:30:12;100119.56;;;10.49;100.00
25560;BME280;13450;49.374;8.584;2022-09-24T03:32:57;100113.97;;;10.44;100.00
25560;BME280;13450;49.374;8.584;2022-09-24T03:35:22;100107.22;;;10.48;100.00
25560;BME280;13450;49.374;8.584;2022-09-24T03:37:48;100106.84;;;10.51;100.00
25560;BME280;13450;49.374;8.584;2022-09-24T03:40:13;100108.91;;;10.56;100.00
25560;BME280;13450;49.374;8.584;2022-09-24T03:42:40;100102.13;;;10.53;100.00
25560;BME280;13450;49.374;8.584;2022-09-24T03:45:06;100100.34;;;10.61;100.00
25560;BME280;13450;49.374;8.584;2022-09-24T03:47:32;100096.19;;;10.58;100.00
25560;BME280;13450;49.374;8.584;2022-09-24T03:49:57;100092.75;;;10.64;100.00
25560;BME280;13450;49.374;8.584;2022-09-24T03:52:23;100082.88;;;10.65;100.00
25560;BME280;13450;49.374;8.584;2022-09-24T03:54:51;100087.19;;;10.66;100.00
25560;BME280;13450;49.374;8.584;2022-09-24T03:57:17;100085.94;;;10.62;100.00
25560;BME280;13450;49.374;8.584;2022-09-24T03:59:43;100090.00;;;10.57;100.00
25560;BME280;13450;49.374;8.584;2022-09-24T04:02:09;100095.75;;;10.54;100.00
25560;BME280;13450;49.374;8.584;2022-09-24T04:04:35;100095.50;;;10.49;100.00
25560;BME280;13450;49.374;8.584;2022-09-24T04:07:00;100092.19;;;10.47;100.00
25560;BME280;13450;49.374;8.584;2022-09-24T04:09:26;100089.22;;;10.42;100.00
25560;BME280;13450;49.374;8.584;2022-09-24T04:11:51;100091.03;;;10.34;100.00
25560;BME280;13450;49.374;8.584;2022-09-24T04:14:19;100094.31;;;10.37;100.00
25560;BME280;13450;49.374;8.584;2022-09-24T04:16:45;100091.41;;;10.31;100.00
25560;BME280;13450;49.374;8.584;2022-09-24T04:19:12;100083.91;;;10.20;100.00
25560;BME280;13450;49.374;8.584;2022-09-24T04:21:41;100079.69;;;10.11;100.00
25560;BME280;13450;49.374;8.584;2022-09-24T04:24:06;100087.44;;;10.05;100.00
25560;BME280;13450;49.374;8.584;2022-09-24T04:26:31;100081.66;;;10.02;100.00
25560;BME280;13450;49.374;8.584;2022-09-24T04:28:59;100079.09;;;9.93;100.00
25560;BME280;13450;49.374;8.584;2022-09-24T04:31:25;100082.25;;;9.97;100.00
25560;BME280;13450;49.374;8.584;2022-09-24T04:33:56;100085.34;;;10.01;100.00
25560;BME280;13450;49.374;8.584;2022-09-24T04:36:22;100084.16;;;10.03;100.00
25560;BME280;13450;49.374;8.584;2022-09-24T04:38:47;100089.50;;;10.03;100.00
25560;BME280;13450;49.374;8.584;2022-09-24T04:41:12;100085.78;;;10.04;100.00
25560;BME280;13450;49.374;8.584;2022-09-24T04:43:41;100091.13;;;10.04;100.00
25560;BME280;13450;49.374;8.584;2022-09-24T04:46:07;100082.31;;;10.04;100.00
25560;BME280;13450;49.374;8.584;2022-09-24T04:48:34;100081.66;;;10.02;100.00
25560;BME280;13450;49.374;8.584;2022-09-24T04:51:03;100086.16;;;10.01;100.00
25560;BME280;13450;49.374;8.584;2022-09-24T04:53:31;100079.94;;;9.94;100.00
25560;BME280;13450;49.374;8.584;2022-09-24T04:55:58;100081.59;;;9.95;100.00
25560;BME280;13450;49.374;8.584;2022-09-24T04:58:24;100078.28;;;9.93;100.00
25560;BME280;13450;49.374;8.584;2022-09-24T05:00:50;100082.63;;;9.94;100.00
25560;BME280;13450;49.374;8.584;2022-09-24T05:03:15;100080.97;;;9.93;100.00
25560;BME280;13450;49.374;8.584;2022-09-24T05:05:41;100077.91;;;9.96;100.00
25560;BME280;13450;49.374;8.584;2022-09-24T05:08:08;100090.63;;;9.94;100.00
25560;BME280;13450;49.374;8.584;2022-09-24T05:10:34;100090.84;;;9.77;100.00
25560;BME280;13450;49.374;8.584;2022-09-24T05:13:00;100085.81;;;9.67;100.00
25560;BME280;13450;49.374;8.584;2022-09-24T05:15:26;100090.69;;;9.64;100.00
25560;BME280;13450;49.374;8.584;2022-09-24T05:17:53;100091.47;;;9.58;100.00
25560;BME280;13450;49.374;8.584;2022-09-24T05:20:19;100093.47;;;9.55;100.00
25560;BME280;13450;49.374;8.584;2022-09-24T05:22:45;100096.81;;;9.58;100.00
25560;BME280;13450;49.374;8.584;2022-09-24T05:25:13;100097.44;;;9.60;100.00
25560;BME280;13450;49.374;8.584;2022-09-24T05:27:50;100104.31;;;9.69;100.00
25560;BME280;13450;49.374;8.584;2022-09-24T05:30:16;100103.03;;;9.65;100.00
25560;BME280;13450;49.374;8.584;2022-09-24T05:32:43;100105.00;;;9.56;100.00
25560;BME280;13450;49.374;8.584;2022-09-24T05:35:09;100107.84;;;9.54;100.00
25560;BME280;13450;49.374;8.584;2022-09-24T05:37:37;100109.13;;;9.59;100.00
25560;BME280;13450;49.374;8.584;2022-09-24T05:40:05;100114.13;;;9.62;100.00
25560;BME280;13450;49.374;8.584;2022-09-24T05:42:50;100105.59;;;9.73;100.00
25560;BME280;13450;49.374;8.584;2022-09-24T05:45:16;100107.91;;;9.76;100.00
25560;BME280;13450;49.374;8.584;2022-09-24T05:47:47;100106.88;;;9.77;100.00
25560;BME280;13450;49.374;8.584;2022-09-24T05:50:14;100112.69;;;9.81;100.00
25560;BME280;13450;49.374;8.584;2022-09-24T05:52:42;100122.91;;;9.77;100.00
25560;BME280;13450;49.374;8.584;2022-09-24T05:55:09;100121.78;;;9.87;100.00
25560;BME280;13450;49.374;8.584;2022-09-24T05:57:34;100119.84;;;9.96;100.00
25560;BME280;13450;49.374;8.584;2022-09-24T06:00:00;100119.66;;;9.97;100.00
25560;BME280;13450;49.374;8.584;2022-09-24T06:02:26;100130.97;;;9.99;100.00
25560;BME280;13450;49.374;8.584;2022-09-24T06:04:51;100127.28;;;10.00;100.00
25560;BME280;13450;49.374;8.584;2022-09-24T06:07:16;100127.34;;;10.07;100.00
25560;BME280;13450;49.374;8.584;2022-09-24T06:09:42;100121.28;;;10.13;100.00
25560;BME280;13450;49.374;8.584;2022-09-24T06:12:08;100129.38;;;10.20;100.00
25560;BME280;13450;49.374;8.584;2022-09-24T06:14:36;100128.47;;;10.34;100.00
25560;BME280;13450;49.374;8.584;2022-09-24T06:17:02;100121.06;;;10.37;100.00
25560;BME280;13450;49.374;8.584;2022-09-24T06:19:27;100118.28;;;10.45;100.00
25560;BME280;13450;49.374;8.584;2022-09-24T06:21:52;100122.94;;;10.58;100.00
25560;BME280;13450;49.374;8.584;2022-09-24T06:24:19;100128.38;;;10.71;100.00
25560;BME280;13450;49.374;8.584;2022-09-24T06:26:44;100129.72;;;10.82;100.00
25560;BME280;13450;49.374;8.584;2022-09-24T06:29:09;100135.56;;;10.93;100.00
25560;BME280;13450;49.374;8.584;2022-09-24T06:31:34;100132.75;;;11.01;100.00
25560;BME280;13450;49.374;8.584;2022-09-24T06:34:00;100138.97;;;11.08;100.00
25560;BME280;13450;49.374;8.584;2022-09-24T06:36:27;100126.31;;;11.24;100.00
25560;BME280;13450;49.374;8.584;2022-09-24T06:38:52;100131.03;;;11.29;100.00
25560;BME280;13450;49.374;8.584;2022-09-24T06:41:17;100133.16;;;11.33;100.00
25560;BME280;13450;49.374;8.584;2022-09-24T06:43:43;100131.97;;;11.43;100.00
25560;BME280;13450;49.374;8.584;2022-09-24T06:46:08;100137.94;;;11.45;100.00
25560;BME280;13450;49.374;8.584;2022-09-24T06:48:37;100138.97;;;11.44;100.00
25560;BME280;13450;49.374;8.584;2022-09-24T06:51:07;100126.84;;;11.55;100.00
25560;BME280;13450;49.374;8.584;2022-09-24T06:53:35;100141.78;;;11.71;100.00
25560;BME280;13450;49.374;8.584;2022-09-24T06:56:01;100135.59;;;11.77;100.00
25560;BME280;13450;49.374;8.584;2022-09-24T06:58:30;100141.66;;;11.93;100.00
25560;BME280;13450;49.374;8.584;2022-09-24T07:00:57;100142.69;;;11.98;100.00
25560;BME280;13450;49.374;8.584;2022-09-24T07:03:26;100138.78;;;12.01;100.00
25560;BME280;13450;49.374;8.584;2022-09-24T07:05:55;100139.03;;;12.06;100.00
25560;BME280;13450;49.374;8.584;2022-09-24T07:08:20;100148.13;;;12.05;100.00
25560;BME280;13450;49.374;8.584;2022-09-24T07:10:47;100148.28;;;12.03;100.00
25560;BME280;13450;49.374;8.584;2022-09-24T07:13:18;100145.22;;;12.13;100.00
25560;BME280;13450;49.374;8.584;2022-09-24T07:15:45;100150.84;;;12.25;100.00
25560;BME280;13450;49.374;8.584;2022-09-24T07:18:11;100161.81;;;12.44;100.00
25560;BME280;13450;49.374;8.584;2022-09-24T07:20:37;100165.94;;;12.53;100.00
25560;BME280;13450;49.374;8.584;2022-09-24T07:23:07;100168.44;;;12.68;100.00
25560;BME280;13450;49.374;8.584;2022-09-24T07:25:33;100160.19;;;13.04;100.00
25560;BME280;13450;49.374;8.584;2022-09-24T07:28:07;100158.91;;;13.27;100.00
25560;BME280;13450;49.374;8.584;2022-09-24T07:30:33;100158.44;;;13.43;100.00
25560;BME280;13450;49.374;8.584;2022-09-24T07:33:02;100147.06;;;13.55;100.00
25560;BME280;13450;49.374;8.584;2022-09-24T07:35:27;100151.38;;;13.63;100.00
25560;BME280;13450;49.374;8.584;2022-09-24T07:38:01;100144.34;;;13.68;100.00
25560;BME280;13450;49.374;8.584;2022-09-24T07:40:28;100144.56;;;13.60;100.00
25560;BME280;13450;49.374;8.584;2022-09-24T07:42:53;100151.34;;;13.69;100.00
25560;BME280;13450;49.374;8.584;2022-09-24T07:45:20;100142.19;;;13.84;100.00
25560;BME280;13450;49.374;8.584;2022-09-24T07:47:50;100143.78;;;13.92;100.00
25560;BME280;13450;49.374;8.584;2022-09-24T07:50:23;100149.94;;;14.06;100.00
25560;BME280;13450;49.374;8.584;2022-09-24T07:52:54;100148.41;;;14.23;100.00
25560;BME280;13450;49.374;8.584;2022-09-24T07:55:20;100149.75;;;14.39;100.00
25560;BME280;13450;49.374;8.584;2022-09-24T07:57:47;100158.81;;;14.45;100.00
25560;BME280;13450;49.374;8.584;2022-09-24T08:00:13;100160.69;;;14.70;100.00
25560;BME280;13450;49.374;8.584;2022-09-24T08:02:39;100154.56;;;14.88;100.00
25560;BME280;13450;49.374;8.584;2022-09-24T08:05:05;100152.13;;;15.06;100.00
25560;BME280;13450;49.374;8.584;2022-09-24T08:07:30;100149.44;;;15.06;100.00
25560;BME280;13450;49.374;8.584;2022-09-24T08:09:55;100158.41;;;14.99;100.00
25560;BME280;13450;49.374;8.584;2022-09-24T08:12:24;100158.84;;;14.96;100.00
25560;BME280;13450;49.374;8.584;2022-09-24T08:14:51;100163.66;;;14.94;100.00
25560;BME280;13450;49.374;8.584;2022-09-24T08:17:19;100166.00;;;14.84;100.00
25560;BME280;13450;49.374;8.584;2022-09-24T08:19:47;100175.03;;;14.64;100.00
25560;BME280;13450;49.374;8.584;2022-09-24T08:22:12;100183.13;;;14.64;100.00
25560;BME280;13450;49.374;8.584;2022-09-24T08:24:40;100184.38;;;14.61;100.00
25560;BME280;13450;49.374;8.584;2022-09-24T08:27:06;100196.00;;;14.62;100.00
25560;BME280;13450;49.374;8.584;2022-09-24T08:29:31;100195.69;;;14.70;100.00
25560;BME280;13450;49.374;8.584;2022-09-24T08:31:57;100187.28;;;14.92;100.00
25560;BME280;13450;49.374;8.584;2022-09-24T08:34:22;100182.69;;;15.18;100.00
25560;BME280;13450;49.374;8.584;2022-09-24T08:36:48;100183.78;;;15.36;100.00
25560;BME280;13450;49.374;8.584;2022-09-24T08:39:14;100174.28;;;15.52;100.00
25560;BME280;13450;49.374;8.584;2022-09-24T08:44:39;100176.38;;;15.68;100.00
25560;BME280;13450;49.374;8.584;2022-09-24T08:47:42;100170.50;;;15.72;100.00
25560;BME280;13450;49.374;8.584;2022-09-24T08:50:16;100178.78;;;15.77;100.00
25560;BME280;13450;49.374;8.584;2022-09-24T08:55:26;100170.03;;;15.93;100.00
25560;BME280;13450;49.374;8.584;2022-09-24T09:00:30;100163.63;;;15.94;100.00
25560;BME280;13450;49.374;8.584;2022-09-24T09:05:49;100161.56;;;16.08;100.00
25560;BME280;13450;49.374;8.584;2022-09-24T09:08:47;100161.00;;;16.06;100.00
25560;BME280;13450;49.374;8.584;2022-09-24T09:11:15;100156.41;;;16.07;100.00
25560;BME280;13450;49.374;8.584;2022-09-24T09:16:28;100175.63;;;16.29;100.00
25560;BME280;13450;49.374;8.584;2022-09-24T09:18:59;100179.09;;;16.18;100.00
25560;BME280;13450;49.374;8.584;2022-09-24T09:21:35;100179.72;;;16.01;100.00
25560;BME280;13450;49.374;8.584;2022-09-24T09:24:02;100181.38;;;16.02;100.00
25560;BME280;13450;49.374;8.584;2022-09-24T09:26:28;100190.06;;;16.04;100.00
25560;BME280;13450;49.374;8.584;2022-09-24T09:28:58;100178.16;;;16.24;100.00
25560;BME280;13450;49.374;8.584;2022-09-24T09:37:08;100176.00;;;17.11;99.58
25560;BME280;13450;49.374;8.584;2022-09-24T09:39:56;100175.28;;;17.52;97.25
25560;BME280;13450;49.374;8.584;2022-09-24T09:42:33;100186.88;;;17.76;95.27
25560;BME280;13450;49.374;8.584;2022-09-24T09:47:55;100180.66;;;18.05;91.63
25560;BME280;13450;49.374;8.584;2022-09-24T09:50:27;100177.03;;;18.28;90.30
25560;BME280;13450;49.374;8.584;2022-09-24T09:52:53;100178.25;;;18.50;88.14
25560;BME280;13450;49.374;8.584;2022-09-24T09:55:42;100178.13;;;18.45;87.37
25560;BME280;13450;49.374;8.584;2022-09-24T10:00:40;100172.16;;;18.60;90.74
25560;BME280;13450;49.374;8.584;2022-09-24T10:03:05;100170.03;;;18.79;89.04
25560;BME280;13450;49.374;8.584;2022-09-24T10:05:31;100175.69;;;18.94;88.67
25560;BME280;13450;49.374;8.584;2022-09-24T10:07:57;100174.81;;;18.89;89.64
25560;BME280;13450;49.374;8.584;2022-09-24T10:10:27;100174.81;;;18.89;87.70
25560;BME280;13450;49.374;8.584;2022-09-24T10:13:13;100169.63;;;18.87;87.70
25560;BME280;13450;49.374;8.584;2022-09-24T10:15:47;100168.53;;;18.54;90.54
25560;BME280;13450;49.374;8.584;2022-09-24T10:18:14;100166.25;;;18.46;92.90
25560;BME280;13450;49.374;8.584;2022-09-24T10:20:45;100161.41;;;18.48;92.37
25560;BME280;13450;49.374;8.584;2022-09-24T10:23:19;100158.16;;;18.16;95.38
25560;BME280;13450;49.374;8.584;2022-09-24T10:26:00;100165.75;;;17.90;97.56
25560;BME280;13450;49.374;8.584;2022-09-24T10:28:26;100162.47;;;17.88;98.45
25560;BME280;13450;49.374;8.584;2022-09-24T10:31:24;100152.66;;;17.99;98.41
25560;BME280;13450;49.374;8.584;2022-09-24T10:33:54;100162.78;;;18.33;95.19
25560;BME280;13450;49.374;8.584;2022-09-24T10:36:29;100153.19;;;18.42;95.17
25560;BME280;13450;49.374;8.584;2022-09-24T10:39:13;100152.78;;;18.68;94.13
25560;BME280;13450;49.374;8.584;2022-09-24T10:41:46;100153.44;;;18.92;91.65
25560;BME280;13450;49.374;8.584;2022-09-24T10:44:12;100150.97;;;19.08;91.06
25560;BME280;13450;49.374;8.584;2022-09-24T10:50:29;100150.31;;;20.35;78.99
25560;BME280;13450;49.374;8.584;2022-09-24T10:53:16;100157.16;;;20.75;77.35
25560;BME280;13450;49.374;8.584;2022-09-24T11:01:11;100160.13;;;20.13;80.08
25560;BME280;13450;49.374;8.584;2022-09-24T11:04:16;100164.50;;;19.92;81.27
25560;BME280;13450;49.374;8.584;2022-09-24T11:09:53;100160.19;;;19.07;87.67
25560;BME280;13450;49.374;8.584;2022-09-24T11:15:23;100159.16;;;18.45;95.46
25560;BME280;13450;49.374;8.584;2022-09-24T11:20:38;100157.19;;;18.23;100.00
25560;BME280;13450;49.374;8.584;2022-09-24T11:31:29;100140.31;;;18.50;97.16
25560;BME280;13450;49.374;8.584;2022-09-24T11:39:30;100132.28;;;18.55;97.15
25560;BME280;13450;49.374;8.584;2022-09-24T11:50:22;100133.13;;;18.09;100.00
25560;BME280;13450;49.374;8.584;2022-09-24T11:53:13;100130.28;;;18.16;100.00
25560;BME280;13450;49.374;8.584;2022-09-24T11:56:09;100121.25;;;18.27;100.00
25560;BME280;13450;49.374;8.584;2022-09-24T11:58:49;100126.03;;;18.54;100.00
25560;BME280;13450;49.374;8.584;2022-09-24T12:01:27;100127.00;;;18.82;98.51
25560;BME280;13450;49.374;8.584;2022-09-24T12:06:32;100122.22;;;18.90;95.94
25560;BME280;13450;49.374;8.584;2022-09-24T12:09:21;100119.22;;;19.26;97.85
25560;BME280;13450;49.374;8.584;2022-09-24T12:11:56;100106.13;;;20.50;85.73
25560;BME280;13450;49.374;8.584;2022-09-24T12:14:27;100102.91;;;21.50;77.27
25560;BME280;13450;49.374;8.584;2022-09-24T12:17:05;100106.63;;;22.49;68.96
25560;BME280;13450;49.374;8.584;2022-09-24T12:19:43;100101.81;;;23.43;66.21
25560;BME280;13450;49.374;8.584;2022-09-24T12:22:16;100106.03;;;24.80;56.27
25560;BME280;13450;49.374;8.584;2022-09-24T12:24:50;100096.78;;;26.07;51.15
25560;BME280;13450;49.374;8.584;2022-09-24T12:27:21;100097.72;;;25.15;52.02
25560;BME280;13450;49.374;8.584;2022-09-24T12:29:59;100090.47;;;25.49;52.70
25560;BME280;13450;49.374;8.584;2022-09-24T12:33:10;100099.44;;;24.81;52.35
25560;BME280;13450;49.374;8.584;2022-09-24T12:38:36;100096.91;;;23.90;55.36
25560;BME280;13450;49.374;8.584;2022-09-24T12:41:36;100091.03;;;23.02;57.65
25560;BME280;13450;49.374;8.584;2022-09-24T12:51:41;100088.63;;;22.38;63.19
25560;BME280;13450;49.374;8.584;2022-09-24T12:56:45;100101.34;;;21.00;70.11
25560;BME280;13450;49.374;8.584;2022-09-24T12:59:27;100092.19;;;21.22;69.26
25560;BME280;13450;49.374;8.584;2022-09-24T13:01:53;100097.69;;;21.33;66.77
25560;BME280;13450;49.374;8.584;2022-09-24T13:06:45;100088.47;;;21.44;69.10
25560;BME280;13450;49.374;8.584;2022-09-24T13:09:23;100092.69;;;21.09;69.64
25560;BME280;13450;49.374;8.584;2022-09-24T13:12:00;100085.97;;;20.84;71.02
25560;BME280;13450;49.374;8.584;2022-09-24T13:14:29;100082.03;;;20.59;73.85
25560;BME280;13450;49.374;8.584;2022-09-24T13:16:55;100078.78;;;20.62;74.49
25560;BME280;13450;49.374;8.584;2022-09-24T13:19:36;100077.72;;;20.68;75.90
25560;BME280;13450;49.374;8.584;2022-09-24T13:22:05;100077.56;;;20.85;74.54
25560;BME280;13450;49.374;8.584;2022-09-24T13:24:44;100082.88;;;21.02;73.84
25560;BME280;13450;49.374;8.584;2022-09-24T13:27:42;100080.41;;;21.01;74.18
25560;BME280;13450;49.374;8.584;2022-09-24T13:30:25;100081.69;;;20.88;75.62
25560;BME280;13450;49.374;8.584;2022-09-24T13:33:03;100087.47;;;20.59;77.35
25560;BME280;13450;49.374;8.584;2022-09-24T13:35:42;100073.13;;;20.31;78.31
25560;BME280;13450;49.374;8.584;2022-09-24T13:38:19;100070.41;;;19.98;80.55
25560;BME280;13450;49.374;8.584;2022-09-24T13:40:51;100072.63;;;19.79;82.61
25560;BME280;13450;49.374;8.584;2022-09-24T13:43:42;100071.28;;;19.81;83.97
25560;BME280;13450;49.374;8.584;2022-09-24T13:46:16;100068.06;;;19.84;85.21
25560;BME280;13450;49.374;8.584;2022-09-24T13:48:54;100065.09;;;19.86;85.12
25560;BME280;13450;49.374;8.584;2022-09-24T13:51:24;100063.66;;;20.38;83.35
25560;BME280;13450;49.374;8.584;2022-09-24T13:53:57;100060.03;;;21.09;77.91
25560;BME280;13450;49.374;8.584;2022-09-24T13:56:26;100050.75;;;22.26;69.94
25560;BME280;13450;49.374;8.584;2022-09-24T13:59:01;100054.66;;;23.22;63.18
25560;BME280;13450;49.374;8.584;2022-09-24T14:01:35;100060.88;;;23.88;59.63
25560;BME280;13450;49.374;8.584;2022-09-24T14:04:05;100061.34;;;24.01;58.15
25560;BME280;13450;49.374;8.584;2022-09-24T14:06:33;100064.94;;;24.31;55.21
25560;BME280;13450;49.374;8.584;2022-09-24T14:08:59;100059.31;;;24.17;56.48
25560;BME280;13450;49.374;8.584;2022-09-24T14:11:25;100058.22;;;23.78;56.41
25560;BME280;13450;49.374;8.584;2022-09-24T14:13:53;100059.28;;;23.27;58.16
25560;BME280;13450;49.374;8.584;2022-09-24T14:16:24;100058.53;;;23.05;60.30
25560;BME280;13450;49.374;8.584;2022-09-24T14:19:04;100052.59;;;22.93;61.69
25560;BME280;13450;49.374;8.584;2022-09-24T14:24:11;100042.88;;;22.34;61.89
25560;BME280;13450;49.374;8.584;2022-09-24T14:26:45;100033.06;;;22.23;65.37
25560;BME280;13450;49.374;8.584;2022-09-24T14:29:19;100035.81;;;22.07;67.34
25560;BME280;13450;49.374;8.584;2022-09-24T14:31:53;100038.25;;;22.09;66.43
25560;BME280;13450;49.374;8.584;2022-09-24T14:34:32;100035.25;;;22.11;66.71
25560;BME280;13450;49.374;8.584;2022-09-24T14:37:07;100037.38;;;21.67;66.89
25560;BME280;13450;49.374;8.584;2022-09-24T14:39:37;100033.97;;;21.18;69.89
25560;BME280;13450;49.374;8.584;2022-09-24T14:42:08;100050.38;;;20.85;73.33
25560;BME280;13450;49.374;8.584;2022-09-24T14:44:37;100040.22;;;20.70;74.75